Terminal Aerodrome Forecast
Issued by NWS

Home | Current Version | Previous Version | Text Only | Print | Product List | Glossary On
Versions: 1 2 3 4 5 6 7 8 9 10 11 12 13 14 15
000
FTUS45 KBYZ 241130
TAFLVM
TAF
KLVM 241130Z 2412/2512 24020G30KT P6SM BKN100
     FM241500 24014KT P6SM BKN100
     FM250500 26014KT P6SM SCT100 BKN200=

USA.gov is the U.S. government's official web portal to all federal, state and local government web resources and services.